createdAt,value
2018-12-16T00:00:24.557Z,101105.84
2018-12-16T00:01:36.460Z,101097.94
2018-12-16T00:02:40.514Z,101093.06
2018-12-16T00:03:44.629Z,101089.48
2018-12-16T00:04:49.989Z,101093.78
2018-12-16T00:05:54.423Z,101092.10
2018-12-16T00:06:58.380Z,101092.47
2018-12-16T00:08:02.479Z,101096.80
2018-12-16T00:09:06.997Z,101105.20
2018-12-16T00:10:10.985Z,101088.55
2018-12-16T00:11:15.072Z,101082.39
2018-12-16T00:12:19.230Z,101073.22
2018-12-16T00:13:23.320Z,101071.86
2018-12-16T00:14:27.400Z,101075.25
2018-12-16T00:15:31.437Z,101062.00
2018-12-16T00:16:35.479Z,101070.72
2018-12-16T00:17:39.709Z,101065.48
2018-12-16T00:18:43.696Z,101066.79
2018-12-16T00:19:47.683Z,101067.19
2018-12-16T00:20:51.753Z,101062.77
2018-12-16T00:21:55.812Z,101066.25
2018-12-16T00:22:59.891Z,101054.91
2018-12-16T00:24:04.041Z,101047.90
2018-12-16T00:25:08.447Z,101050.92
2018-12-16T00:26:12.701Z,101041.74
2018-12-16T00:27:17.011Z,101042.60
2018-12-16T00:28:21.163Z,101050.92
2018-12-16T00:29:25.287Z,101049.61
2018-12-16T00:30:29.317Z,101057.87
2018-12-16T00:31:33.270Z,101051.32
2018-12-16T00:32:37.326Z,101048.70
2018-12-16T00:33:41.397Z,101047.75
2018-12-16T00:34:45.396Z,101037.77
2018-12-16T00:35:49.454Z,101036.77
2018-12-16T00:36:53.562Z,101036.30
2018-12-16T00:37:57.674Z,101031.89
2018-12-16T00:39:01.802Z,101027.59
2018-12-16T00:40:06.641Z,101018.78
2018-12-16T00:41:10.673Z,101021.03
2018-12-16T00:42:14.853Z,101016.25
2018-12-16T00:43:19.105Z,101006.61
2018-12-16T00:44:23.221Z,101007.92
2018-12-16T00:45:27.848Z,101003.14
2018-12-16T00:46:32.505Z,101002.73
2018-12-16T00:47:36.858Z,101000.58
2018-12-16T00:48:41.210Z,100997.04
2018-12-16T00:49:45.863Z,100994.02
2018-12-16T00:50:50.108Z,101001.43
2018-12-16T00:51:54.514Z,100995.81
2018-12-16T00:52:58.728Z,101001.06
2018-12-16T00:54:03.116Z,100993.66
2018-12-16T00:55:07.454Z,100987.01
2018-12-16T00:56:11.859Z,100987.01
2018-12-16T00:57:16.263Z,100984.39
2018-12-16T00:58:20.482Z,100987.01
2018-12-16T00:59:24.649Z,100984.70
2018-12-16T01:00:29.011Z,100980.31
2018-12-16T01:01:33.361Z,100987.27
2018-12-16T01:02:42.729Z,100975.92
2018-12-16T01:03:46.830Z,100971.99
2018-12-16T01:04:51.101Z,100977.64
2018-12-16T01:05:55.197Z,100975.41
2018-12-16T01:06:59.684Z,100972.84
2018-12-16T01:08:03.717Z,100983.27
2018-12-16T01:09:08.390Z,100977.18
2018-12-16T01:10:13.221Z,100976.72
2018-12-16T01:11:17.674Z,100978.48
2018-12-16T01:12:22.406Z,100971.48
2018-12-16T01:13:26.545Z,100982.42
2018-12-16T01:14:30.868Z,100977.18
2018-12-16T01:15:35.677Z,100976.23
2018-12-16T01:16:39.940Z,100975.78
2018-12-16T01:17:43.933Z,100975.72
2018-12-16T01:18:48.098Z,100984.81
2018-12-16T01:19:52.313Z,100979.20
2018-12-16T01:20:56.487Z,100974.32
2018-12-16T01:22:00.835Z,100971.25
2018-12-16T01:23:05.103Z,100972.09
2018-12-16T01:24:09.300Z,100974.27
2018-12-16T01:25:13.413Z,100964.23
2018-12-16T01:26:17.532Z,100969.02
2018-12-16T01:27:21.720Z,100968.11
2018-12-16T01:28:25.923Z,100966.71
2018-12-16T01:29:30.191Z,100968.42
2018-12-16T01:30:34.643Z,100965.25
2018-12-16T01:31:38.856Z,100970.50
2018-12-16T01:32:43.165Z,100973.12
2018-12-16T01:33:47.414Z,100967.88
2018-12-16T01:34:51.528Z,100973.91
2018-12-16T01:35:55.731Z,100966.41
2018-12-16T01:37:01.794Z,100965.50
2018-12-16T01:38:05.997Z,100962.87
2018-12-16T01:39:10.103Z,100962.48
2018-12-16T01:40:14.381Z,100960.25
2018-12-16T01:41:18.532Z,100965.50
2018-12-16T01:42:22.637Z,100957.23
2018-12-16T01:43:26.953Z,100958.55
2018-12-16T01:44:31.050Z,100952.45
2018-12-16T01:45:35.840Z,100949.00
2018-12-16T01:46:39.994Z,100946.69
2018-12-16T01:47:45.254Z,100948.86
2018-12-16T01:48:49.502Z,100945.84
2018-12-16T01:49:53.665Z,100942.75
2018-12-16T01:50:57.794Z,100948.45
2018-12-16T01:52:01.937Z,100941.81
2018-12-16T01:53:06.093Z,100935.74
2018-12-16T01:54:10.456Z,100936.97
2018-12-16T01:55:14.719Z,100942.61
2018-12-16T01:56:18.929Z,100933.83
2018-12-16T01:57:23.051Z,100934.19
2018-12-16T01:58:27.562Z,100927.73
2018-12-16T01:59:32.592Z,100927.33
2018-12-16T02:00:38.821Z,100922.63
2018-12-16T02:01:47.113Z,100918.36
2018-12-16T02:02:51.855Z,100921.92
2018-12-16T02:03:56.117Z,100917.14
2018-12-16T02:05:00.423Z,100909.33
2018-12-16T02:06:04.692Z,100914.73
2018-12-16T02:07:09.042Z,100915.73
2018-12-16T02:08:13.165Z,100918.50
2018-12-16T02:09:17.362Z,100916.17
2018-12-16T02:10:21.490Z,100906.30
2018-12-16T02:11:25.692Z,100902.97
2018-12-16T02:12:29.855Z,100901.01
2018-12-16T02:13:34.271Z,100903.41
2018-12-16T02:14:39.021Z,100897.91
2018-12-16T02:15:43.392Z,100894.13
2018-12-16T02:16:47.569Z,100888.09
2018-12-16T02:17:51.793Z,100889.95
2018-12-16T02:18:55.978Z,100892.17
2018-12-16T02:20:00.449Z,100881.37
2018-12-16T02:21:04.740Z,100875.69
2018-12-16T02:22:08.802Z,100875.69
2018-12-16T02:23:13.080Z,100872.67
2018-12-16T02:24:17.300Z,100877.91
2018-12-16T02:25:21.462Z,100875.38
2018-12-16T02:26:25.740Z,100866.72
2018-12-16T02:27:29.949Z,100872.05
2018-12-16T02:28:34.240Z,100869.88
2018-12-16T02:29:38.385Z,100868.17
2018-12-16T02:30:42.499Z,100866.86
2018-12-16T02:31:46.747Z,100869.94
2018-12-16T02:32:50.868Z,100867.72
2018-12-16T02:33:55.610Z,100867.41
2018-12-16T02:34:59.731Z,100864.39
2018-12-16T02:36:03.801Z,100865.79
2018-12-16T02:37:08.406Z,100870.63
2018-12-16T02:38:12.559Z,100862.77
2018-12-16T02:39:17.128Z,100864.08
2018-12-16T02:40:21.415Z,100863.68
2018-12-16T02:41:25.581Z,100864.48
2018-12-16T02:42:29.728Z,100863.17
2018-12-16T02:43:34.030Z,100861.77
2018-12-16T02:44:38.255Z,100854.86
2018-12-16T02:45:42.484Z,100850.92
2018-12-16T02:46:46.542Z,100853.60
2018-12-16T02:47:50.851Z,100850.07
2018-12-16T02:48:55.109Z,100849.67
2018-12-16T02:49:59.255Z,100847.00
2018-12-16T02:51:03.477Z,100844.38
2018-12-16T02:52:07.490Z,100838.65
2018-12-16T02:53:11.777Z,100841.81
2018-12-16T02:54:16.254Z,100843.52
2018-12-16T02:55:20.343Z,100847.45
2018-12-16T02:56:24.670Z,100845.34
2018-12-16T02:57:28.873Z,100837.13
2018-12-16T02:58:33.107Z,100836.17
2018-12-16T02:59:37.534Z,100834.72
2018-12-16T03:00:41.539Z,100835.12
2018-12-16T03:01:48.097Z,100829.48
2018-12-16T03:02:52.168Z,100829.48
2018-12-16T03:03:56.389Z,100829.42
2018-12-16T03:05:00.771Z,100836.42
2018-12-16T03:06:05.170Z,100832.50
2018-12-16T03:07:09.836Z,100826.41
2018-12-16T03:08:14.088Z,100828.57
2018-12-16T03:09:18.298Z,100828.17
2018-12-16T03:10:22.631Z,100822.02
2018-12-16T03:11:26.871Z,100819.86
2018-12-16T03:12:31.011Z,100818.64
2018-12-16T03:13:35.049Z,100823.42
2018-12-16T03:14:39.423Z,100823.42
2018-12-16T03:15:43.890Z,100812.09
2018-12-16T03:16:48.692Z,100818.64
2018-12-16T03:17:53.110Z,100813.77
2018-12-16T03:18:57.401Z,100820.26
2018-12-16T03:20:01.575Z,100814.56
2018-12-16T03:21:05.873Z,100817.94
2018-12-16T03:22:10.157Z,100816.23
2018-12-16T03:23:14.458Z,100816.33
2018-12-16T03:24:18.797Z,100814.16
2018-12-16T03:25:22.826Z,100806.76
2018-12-16T03:26:27.167Z,100805.09
2018-12-16T03:27:31.811Z,100814.70
2018-12-16T03:28:36.230Z,100810.78
2018-12-16T03:29:41.127Z,100810.37
2018-12-16T03:30:45.487Z,100807.91
2018-12-16T03:31:49.809Z,100807.97
2018-12-16T03:32:54.019Z,100803.58
2018-12-16T03:33:58.448Z,100798.89
2018-12-16T03:35:02.736Z,100796.67
2018-12-16T03:36:06.889Z,100797.13
2018-12-16T03:37:10.925Z,100799.66
2018-12-16T03:38:15.072Z,100800.59
2018-12-16T03:39:19.091Z,100797.64
2018-12-16T03:40:23.210Z,100795.11
2018-12-16T03:41:27.345Z,100789.56
2018-12-16T03:42:31.360Z,100797.08
2018-12-16T03:43:35.560Z,100789.00
2018-12-16T03:44:39.630Z,100795.61
2018-12-16T03:45:43.605Z,100791.38
2018-12-16T03:46:47.701Z,100788.80
2018-12-16T03:47:51.785Z,100786.64
2018-12-16T03:48:55.742Z,100782.35
2018-12-16T03:49:59.806Z,100786.28
2018-12-16T03:51:03.900Z,100794.13
2018-12-16T03:52:08.508Z,100784.57
2018-12-16T03:53:19.438Z,100782.50
2018-12-16T03:54:18.481Z,100783.41
2018-12-16T03:55:22.552Z,100779.63
2018-12-16T03:56:26.534Z,100774.94
2018-12-16T03:57:30.765Z,100777.16
2018-12-16T03:58:34.766Z,100777.55
2018-12-16T03:59:38.854Z,100783.24
2018-12-16T04:00:42.930Z,100778.86
2018-12-16T04:01:52.501Z,100773.68
2018-12-16T04:02:56.602Z,100775.05
2018-12-16T04:04:00.629Z,100774.83
2018-12-16T04:05:05.122Z,100781.37
2018-12-16T04:06:09.164Z,100769.59
2018-12-16T04:07:13.186Z,100774.88
2018-12-16T04:08:17.225Z,100766.27
2018-12-16T04:09:21.319Z,100766.86
2018-12-16T04:10:25.289Z,100768.17
2018-12-16T04:11:29.279Z,100772.50
2018-12-16T04:12:33.250Z,100770.25
2018-12-16T04:13:37.869Z,100773.80
2018-12-16T04:14:42.168Z,100773.80
2018-12-16T04:15:46.239Z,100776.42
2018-12-16T04:16:50.402Z,100774.62
2018-12-16T04:17:54.776Z,100783.28
2018-12-16T04:18:58.816Z,100783.28
2018-12-16T04:20:02.875Z,100778.50
2018-12-16T04:21:07.082Z,100789.73
2018-12-16T04:22:11.281Z,100781.03
2018-12-16T04:23:15.587Z,100784.12
2018-12-16T04:24:19.611Z,100779.35
2018-12-16T04:25:23.782Z,100782.48
2018-12-16T04:26:27.821Z,100776.88
2018-12-16T04:27:32.670Z,100777.84
2018-12-16T04:28:36.717Z,100772.24
2018-12-16T04:29:40.839Z,100777.47
2018-12-16T04:30:44.840Z,100777.02
2018-12-16T04:31:48.964Z,100776.94
2018-12-16T04:32:52.974Z,100778.64
2018-12-16T04:33:56.977Z,100775.17
2018-12-16T04:35:01.567Z,100782.56
2018-12-16T04:36:05.706Z,100772.61
2018-12-16T04:37:09.993Z,100776.31
2018-12-16T04:38:14.250Z,100775.20
2018-12-16T04:39:18.478Z,100769.11
2018-12-16T04:40:22.549Z,100774.44
2018-12-16T04:41:26.587Z,100765.33
2018-12-16T04:42:30.583Z,100766.64
2018-12-16T04:43:34.674Z,100763.56
2018-12-16T04:44:38.720Z,100765.33
2018-12-16T04:45:42.775Z,100771.88
2018-12-16T04:46:46.886Z,100773.58
2018-12-16T04:47:50.854Z,100769.66
2018-12-16T04:48:54.917Z,100771.36
2018-12-16T04:49:58.893Z,100776.20
2018-12-16T04:51:03.022Z,100773.18
2018-12-16T04:52:07.055Z,100777.64
2018-12-16T04:53:11.110Z,100767.69
2018-12-16T04:54:15.653Z,100770.84
2018-12-16T04:55:19.839Z,100762.23
2018-12-16T04:56:23.937Z,100762.69
2018-12-16T04:57:28.062Z,100765.66
2018-12-16T04:58:32.033Z,100759.13
2018-12-16T04:59:36.054Z,100760.92
2018-12-16T05:00:39.995Z,100754.52
2018-12-16T05:01:44.053Z,100764.05
2018-12-16T05:02:48.133Z,100758.81
2018-12-16T05:03:52.189Z,100762.37
2018-12-16T05:04:56.265Z,100757.05
2018-12-16T05:06:00.262Z,100764.45
2018-12-16T05:07:04.375Z,100755.29
2018-12-16T05:08:08.627Z,100759.61
2018-12-16T05:09:12.592Z,100760.92
2018-12-16T05:10:26.549Z,100767.38
2018-12-16T05:11:30.544Z,100765.61
2018-12-16T05:12:34.505Z,100762.54
2018-12-16T05:13:38.497Z,100760.78
2018-12-16T05:14:42.489Z,100759.07
2018-12-16T05:15:46.565Z,100762.14
2018-12-16T05:16:50.574Z,100759.07
2018-12-16T05:17:54.696Z,100756.91
2018-12-16T05:18:58.921Z,100757.31
2018-12-16T05:20:02.949Z,100758.53
2018-12-16T05:21:07.238Z,100756.77
2018-12-16T05:22:11.250Z,100756.31
2018-12-16T05:23:15.269Z,100748.46
2018-12-16T05:24:19.284Z,100748.46
2018-12-16T05:25:23.536Z,100751.08
2018-12-16T05:26:27.548Z,100754.09
2018-12-16T05:27:31.530Z,100751.08
2018-12-16T05:28:35.517Z,100756.71
2018-12-16T05:29:39.489Z,100763.63
2018-12-16T05:30:43.456Z,100761.09
2018-12-16T05:31:47.453Z,100761.00
2018-12-16T05:32:51.555Z,100748.01
2018-12-16T05:33:55.562Z,100751.02
2018-12-16T05:34:59.801Z,100757.94
2018-12-16T05:36:03.849Z,100757.08
2018-12-16T05:37:07.824Z,100757.17
2018-12-16T05:38:11.786Z,100753.23
2018-12-16T05:39:15.845Z,100748.01
2018-12-16T05:40:19.894Z,100743.23
2018-12-16T05:41:23.967Z,100746.70
2018-12-16T05:42:27.968Z,100744.00
2018-12-16T05:43:31.982Z,100745.25
2018-12-16T05:44:36.153Z,100739.16
2018-12-16T05:45:40.372Z,100743.48
2018-12-16T05:46:44.349Z,100740.02
2018-12-16T05:47:48.800Z,100741.78
2018-12-16T05:48:52.848Z,100749.72
2018-12-16T05:49:57.041Z,100744.09
2018-12-16T05:51:01.443Z,100741.92
2018-12-16T05:52:05.493Z,100747.16
2018-12-16T05:53:09.463Z,100748.01
2018-12-16T05:54:13.582Z,100742.69
2018-12-16T05:55:17.692Z,100741.72
2018-12-16T05:56:21.731Z,100744.34
2018-12-16T05:57:25.875Z,100746.87
2018-12-16T05:58:29.949Z,100745.56
2018-12-16T05:59:34.090Z,100748.58
2018-12-16T06:00:38.246Z,100746.87
2018-12-16T06:01:42.264Z,100742.58
2018-12-16T06:02:46.449Z,100748.58
2018-12-16T06:03:50.449Z,100735.89
2018-12-16T06:04:54.428Z,100747.58
2018-12-16T06:05:58.509Z,100742.28
2018-12-16T06:07:02.466Z,100739.58
2018-12-16T06:08:06.503Z,100740.44
2018-12-16T06:09:10.553Z,100748.14
2018-12-16T06:10:14.521Z,100747.69
2018-12-16T06:11:18.636Z,100745.02
2018-12-16T06:12:22.699Z,100748.85
2018-12-16T06:13:26.762Z,100745.78
2018-12-16T06:14:30.765Z,100742.25
2018-12-16T06:15:34.717Z,100751.41
2018-12-16T06:16:38.838Z,100745.23
2018-12-16T06:17:42.936Z,100742.62
2018-12-16T06:18:47.066Z,100750.88
2018-12-16T06:19:51.058Z,100741.70
2018-12-16T06:20:55.081Z,100743.41
2018-12-16T06:21:59.161Z,100743.33
2018-12-16T06:23:03.841Z,100735.87
2018-12-16T06:24:07.841Z,100738.03
2018-12-16T06:25:11.996Z,100737.18
2018-12-16T06:26:16.145Z,100738.94
2018-12-16T06:27:20.168Z,100735.41
2018-12-16T06:28:24.177Z,100729.72
2018-12-16T06:29:28.188Z,100732.70
2018-12-16T06:30:34.680Z,100733.56
2018-12-16T06:31:38.833Z,100726.62
2018-12-16T06:32:42.874Z,100728.33
2018-12-16T06:33:46.978Z,100726.50
2018-12-16T06:34:50.964Z,100728.17
2018-12-16T06:35:54.977Z,100729.48
2018-12-16T06:36:58.991Z,100725.11
2018-12-16T06:38:03.040Z,100725.11
2018-12-16T06:39:07.221Z,100728.58
2018-12-16T06:40:11.196Z,100727.66
2018-12-16T06:41:15.236Z,100726.36
2018-12-16T06:42:19.308Z,100727.12
2018-12-16T06:43:23.364Z,100723.95
2018-12-16T06:44:27.393Z,100728.73
2018-12-16T06:45:31.455Z,100723.04
2018-12-16T06:46:35.441Z,100732.20
2018-12-16T06:47:39.446Z,100731.30
2018-12-16T06:48:43.486Z,100731.20
2018-12-16T06:49:47.537Z,100731.59
2018-12-16T06:50:51.577Z,100734.67
2018-12-16T06:51:55.546Z,100731.55
2018-12-16T06:52:59.563Z,100728.44
2018-12-16T06:54:03.739Z,100729.29
2018-12-16T06:55:07.855Z,100725.76
2018-12-16T06:56:11.917Z,100729.14
2018-12-16T06:57:15.905Z,100724.36
2018-12-16T06:58:19.908Z,100731.39
2018-12-16T06:59:23.988Z,100728.77
2018-12-16T07:00:27.949Z,100729.14
2018-12-16T07:01:31.943Z,100730.84
2018-12-16T07:02:35.984Z,100728.99
2018-12-16T07:03:40.109Z,100724.61
2018-12-16T07:04:44.120Z,100725.91
2018-12-16T07:05:48.244Z,100721.92
2018-12-16T07:06:53.197Z,100719.61
2018-12-16T07:07:57.841Z,100726.10
2018-12-16T07:09:01.813Z,100729.94
2018-12-16T07:10:06.037Z,100728.63
2018-12-16T07:11:10.177Z,100725.95
2018-12-16T07:12:14.206Z,100722.08
2018-12-16T07:13:18.314Z,100729.08
2018-12-16T07:14:22.361Z,100732.65
2018-12-16T07:15:26.418Z,100736.58
2018-12-16T07:16:30.524Z,100731.25
2018-12-16T07:17:34.522Z,100733.81
2018-12-16T07:18:38.573Z,100741.66
2018-12-16T07:19:42.544Z,100735.94
2018-12-16T07:20:46.562Z,100741.17
2018-12-16T07:21:50.614Z,100741.12
2018-12-16T07:22:54.792Z,100739.72
2018-12-16T07:23:58.769Z,100733.17
2018-12-16T07:25:02.916Z,100740.05
2018-12-16T07:26:07.191Z,100747.36
2018-12-16T07:27:11.191Z,100744.74
2018-12-16T07:28:16.632Z,100743.89
2018-12-16T07:29:20.860Z,100743.83
2018-12-16T07:30:25.104Z,100738.59
2018-12-16T07:31:29.160Z,100748.98
2018-12-16T07:32:33.217Z,100740.27
2018-12-16T07:33:37.292Z,100742.06
2018-12-16T07:34:41.347Z,100746.45
2018-12-16T07:35:45.393Z,100748.67
2018-12-16T07:36:49.422Z,100744.74
2018-12-16T07:37:53.516Z,100746.81
2018-12-16T07:38:57.519Z,100749.83
2018-12-16T07:40:01.538Z,100752.45
2018-12-16T07:41:05.559Z,100761.63
2018-12-16T07:42:09.741Z,100763.78
2018-12-16T07:43:13.733Z,100763.33
2018-12-16T07:44:17.721Z,100762.02
2018-12-16T07:45:21.880Z,100760.25
2018-12-16T07:46:25.962Z,100761.11
2018-12-16T07:47:30.072Z,100760.70
2018-12-16T07:48:34.183Z,100762.87
2018-12-16T07:49:38.285Z,100760.70
2018-12-16T07:50:42.404Z,100765.49
2018-12-16T07:51:46.776Z,100766.71
2018-12-16T07:52:50.920Z,100757.99
2018-12-16T07:53:55.144Z,100763.17
2018-12-16T07:54:59.130Z,100763.08
2018-12-16T07:56:03.226Z,100769.97
2018-12-16T07:57:07.223Z,100763.78
2018-12-16T07:58:11.225Z,100769.81
2018-12-16T07:59:15.469Z,100772.34
2018-12-16T08:00:19.508Z,100771.83
2018-12-16T08:01:23.532Z,100770.52
2018-12-16T08:02:27.553Z,100774.81
2018-12-16T08:03:31.777Z,100774.00
2018-12-16T08:04:35.884Z,100778.29
2018-12-16T08:05:39.968Z,100770.73
2018-12-16T08:06:44.015Z,100778.59
2018-12-16T08:07:47.980Z,100778.93
2018-12-16T08:08:51.993Z,100779.08
2018-12-16T08:09:55.981Z,100779.45
2018-12-16T08:10:59.946Z,100785.09
2018-12-16T08:12:03.998Z,100792.03
2018-12-16T08:13:08.154Z,100785.09
2018-12-16T08:14:12.222Z,100786.79
2018-12-16T08:15:16.242Z,100785.02
2018-12-16T08:16:20.297Z,100781.91
2018-12-16T08:17:24.297Z,100783.63
2018-12-16T08:18:28.416Z,100781.91
2018-12-16T08:19:32.465Z,100785.02
2018-12-16T08:20:36.444Z,100783.22
2018-12-16T08:21:40.471Z,100783.63
2018-12-16T08:22:44.459Z,100787.09
2018-12-16T08:23:48.714Z,100784.02
2018-12-16T08:24:52.727Z,100790.94
2018-12-16T08:25:56.786Z,100786.09
2018-12-16T08:27:00.878Z,100793.04
2018-12-16T08:28:04.953Z,100789.96
2018-12-16T08:29:08.918Z,100786.88
2018-12-16T08:30:13.125Z,100793.34
2018-12-16T08:31:17.177Z,100792.13
2018-12-16T08:32:21.122Z,100787.64
2018-12-16T08:33:25.250Z,100786.33
2018-12-16T08:34:29.317Z,100788.04
2018-12-16T08:35:33.404Z,100783.25
2018-12-16T08:36:37.611Z,100784.56
2018-12-16T08:37:41.662Z,100787.19
2018-12-16T08:38:45.656Z,100788.95
2018-12-16T08:39:50.776Z,100788.04
2018-12-16T08:40:55.249Z,100788.04
2018-12-16T08:41:59.896Z,100795.81
2018-12-16T08:43:04.017Z,100790.51
2018-12-16T08:44:08.074Z,100799.59
2018-12-16T08:45:12.050Z,100797.27
2018-12-16T08:46:16.054Z,100791.20
2018-12-16T08:47:20.310Z,100801.14
2018-12-16T08:48:24.275Z,100798.52
2018-12-16T08:49:28.340Z,100805.02
2018-12-16T08:50:32.381Z,100799.28
2018-12-16T08:51:36.580Z,100804.46
2018-12-16T08:52:40.568Z,100802.59
2018-12-16T08:53:44.582Z,100807.78
2018-12-16T08:54:48.586Z,100806.02
2018-12-16T08:55:52.778Z,100815.09
2018-12-16T08:56:56.912Z,100813.73
2018-12-16T08:58:01.459Z,100808.84
2018-12-16T08:59:05.527Z,100806.22
2018-12-16T09:00:09.703Z,100806.71
2018-12-16T09:01:13.665Z,100805.86
2018-12-16T09:02:17.649Z,100808.09
2018-12-16T09:03:21.718Z,100800.67
2018-12-16T09:04:25.938Z,100805.92
2018-12-16T09:05:29.968Z,100807.17
2018-12-16T09:06:35.868Z,100803.70
2018-12-16T09:07:40.216Z,100803.59
2018-12-16T09:08:44.827Z,100807.93
2018-12-16T09:09:49.039Z,100804.39
2018-12-16T09:10:53.005Z,100806.09
2018-12-16T09:11:56.983Z,100802.69
2018-12-16T09:13:01.185Z,100797.38
2018-12-16T09:14:05.262Z,100797.28
2018-12-16T09:15:09.373Z,100796.37
2018-12-16T09:16:13.395Z,100798.59
2018-12-16T09:17:17.373Z,100798.59
2018-12-16T09:18:21.479Z,100802.98
2018-12-16T09:19:25.568Z,100799.45
2018-12-16T09:20:29.641Z,100802.01
2018-12-16T09:21:33.581Z,100799.39
2018-12-16T09:22:37.577Z,100804.08
2018-12-16T09:23:41.642Z,100809.72
2018-12-16T09:24:45.597Z,100801.85
2018-12-16T09:25:49.749Z,100802.61
2018-12-16T09:26:53.699Z,100801.76
2018-12-16T09:27:57.757Z,100799.44
2018-12-16T09:29:01.741Z,100802.39
2018-12-16T09:30:08.238Z,100805.77
2018-12-16T09:31:12.208Z,100804.86
2018-12-16T09:32:16.249Z,100802.93
2018-12-16T09:33:20.417Z,100805.45
2018-12-16T09:34:24.560Z,100806.31
2018-12-16T09:35:28.547Z,100807.07
2018-12-16T09:36:32.502Z,100809.23
2018-12-16T09:37:36.466Z,100815.27
2018-12-16T09:38:40.605Z,100815.73
2018-12-16T09:39:44.699Z,100814.78
2018-12-16T09:40:48.732Z,100816.48
2018-12-16T09:41:52.785Z,100813.47
2018-12-16T09:42:56.800Z,100815.27
2018-12-16T09:44:00.780Z,100812.71
2018-12-16T09:45:05.545Z,100806.55
2018-12-16T09:46:09.647Z,100810.48
2018-12-16T09:47:13.729Z,100811.80
2018-12-16T09:48:24.622Z,100806.09
2018-12-16T09:49:28.828Z,100801.66
2018-12-16T09:50:32.942Z,100802.06
2018-12-16T09:51:37.011Z,100805.53
2018-12-16T09:52:40.981Z,100805.93
2018-12-16T09:53:45.164Z,100810.33
2018-12-16T09:54:49.357Z,100812.03
2018-12-16T09:55:53.380Z,100814.26
2018-12-16T09:56:57.455Z,100811.94
2018-12-16T09:58:01.488Z,100808.00
2018-12-16T09:59:05.573Z,100810.56
2018-12-16T10:00:11.001Z,100809.70
2018-12-16T10:01:15.024Z,100804.92
2018-12-16T10:02:19.141Z,100813.64
2018-12-16T10:03:23.169Z,100810.16
2018-12-16T10:04:27.142Z,100814.66
2018-12-16T10:05:31.168Z,100816.48
2018-12-16T10:06:35.157Z,100820.52
2018-12-16T10:07:39.309Z,100817.95
2018-12-16T10:08:43.401Z,100811.86
2018-12-16T10:09:47.353Z,100817.56
2018-12-16T10:10:51.403Z,100817.95
2018-12-16T10:11:55.389Z,100820.58
2018-12-16T10:12:59.365Z,100814.78
2018-12-16T10:14:03.459Z,100815.17
2018-12-16T10:15:07.951Z,100813.02
2018-12-16T10:16:11.913Z,100816.48
2018-12-16T10:17:15.938Z,100818.19
2018-12-16T10:18:19.954Z,100811.70
2018-12-16T10:19:24.057Z,100811.24
2018-12-16T10:20:28.256Z,100813.70
2018-12-16T10:21:32.241Z,100812.33
2018-12-16T10:22:36.230Z,100805.67
2018-12-16T10:23:40.393Z,100800.43
2018-12-16T10:24:51.027Z,100807.38
2018-12-16T10:25:50.385Z,100807.38
2018-12-16T10:26:54.416Z,100808.23
2018-12-16T10:27:58.438Z,100811.31
2018-12-16T10:29:02.417Z,100806.92
2018-12-16T10:30:08.314Z,100805.16
2018-12-16T10:31:12.488Z,100807.22
2018-12-16T10:32:16.509Z,100808.38
2018-12-16T10:33:20.481Z,100806.14
2018-12-16T10:34:24.573Z,100804.27
2018-12-16T10:35:28.641Z,100808.51
2018-12-16T10:36:32.697Z,100807.20
2018-12-16T10:37:36.762Z,100810.16
2018-12-16T10:38:40.955Z,100807.89
2018-12-16T10:39:45.026Z,100808.28
2018-12-16T10:40:49.197Z,100812.67
2018-12-16T10:41:53.219Z,100807.89
2018-12-16T10:42:57.213Z,100805.82
2018-12-16T10:44:01.266Z,100814.16
2018-12-16T10:45:06.949Z,100812.94
2018-12-16T10:46:11.136Z,100814.25
2018-12-16T10:47:15.096Z,100816.94
2018-12-16T10:48:19.512Z,100812.61
2018-12-16T10:49:23.597Z,100811.69
2018-12-16T10:50:27.722Z,100817.79
2018-12-16T10:51:31.700Z,100809.46
2018-12-16T10:52:35.670Z,100814.61
2018-12-16T10:53:39.809Z,100808.91
2018-12-16T10:54:43.783Z,100808.05
2018-12-16T10:55:47.780Z,100811.92
2018-12-16T10:56:51.787Z,100811.83
2018-12-16T10:57:55.780Z,100805.75
2018-12-16T10:58:59.787Z,100803.03
2018-12-16T11:00:06.625Z,100798.18
2018-12-16T11:01:16.230Z,100799.39
2018-12-16T11:02:20.213Z,100797.16
2018-12-16T11:03:24.189Z,100795.79
2018-12-16T11:04:28.209Z,100794.84
2018-12-16T11:05:32.425Z,100796.45
2018-12-16T11:06:36.392Z,100793.36
2018-12-16T11:07:40.386Z,100787.59
2018-12-16T11:08:45.058Z,100780.56
2018-12-16T11:09:49.154Z,100782.17
2018-12-16T11:10:53.149Z,100778.92
2018-12-16T11:11:57.236Z,100780.92
2018-12-16T11:13:01.505Z,100785.61
2018-12-16T11:14:05.617Z,100780.75
2018-12-16T11:15:09.766Z,100780.20
2018-12-16T11:16:13.800Z,100786.30
2018-12-16T11:17:17.934Z,100786.20
2018-12-16T11:18:21.927Z,100788.37
2018-12-16T11:19:25.944Z,100790.53
2018-12-16T11:20:29.973Z,100789.22
2018-12-16T11:21:33.956Z,100798.87
2018-12-16T11:22:37.958Z,100792.77
2018-12-16T11:23:42.060Z,100796.41
2018-12-16T11:24:46.048Z,100791.62
2018-12-16T11:25:52.158Z,100787.67
2018-12-16T11:26:56.189Z,100786.70
2018-12-16T11:28:00.402Z,100789.22
2018-12-16T11:29:04.437Z,100783.80
2018-12-16T11:30:09.258Z,100788.98
2018-12-16T11:31:13.325Z,100784.02
2018-12-16T11:32:17.343Z,100784.42
2018-12-16T11:33:21.691Z,100781.80
2018-12-16T11:34:25.669Z,100783.11
2018-12-16T11:35:29.682Z,100781.96
2018-12-16T11:36:40.446Z,100785.41
2018-12-16T11:37:44.609Z,100782.78
2018-12-16T11:38:48.875Z,100777.92
2018-12-16T11:39:53.570Z,100781.01
2018-12-16T11:40:57.748Z,100781.01
2018-12-16T11:42:01.831Z,100781.96
2018-12-16T11:43:06.066Z,100777.07
2018-12-16T11:44:10.096Z,100774.91
2018-12-16T11:45:14.278Z,100776.15
2018-12-16T11:46:18.481Z,100777.46
2018-12-16T11:47:22.473Z,100779.23
2018-12-16T11:48:26.718Z,100774.84
2018-12-16T11:49:30.758Z,100772.67
2018-12-16T11:50:34.869Z,100770.44
2018-12-16T11:51:39.202Z,100767.35
2018-12-16T11:52:43.282Z,100772.96
2018-12-16T11:53:47.362Z,100770.34
2018-12-16T11:54:51.437Z,100771.65
2018-12-16T11:55:55.542Z,100765.94
2018-12-16T11:56:59.463Z,100769.81
2018-12-16T11:58:03.521Z,100770.17
2018-12-16T11:59:07.541Z,100766.23
2018-12-16T12:00:11.740Z,100771.41
2018-12-16T12:01:15.950Z,100770.03
2018-12-16T12:02:19.989Z,100783.91
2018-12-16T12:03:23.976Z,100776.10
2018-12-16T12:04:28.061Z,100779.13
2018-12-16T12:05:32.108Z,100777.91
2018-12-16T12:06:42.842Z,100780.44
2018-12-16T12:07:46.858Z,100773.88
2018-12-16T12:08:50.892Z,100775.19
2018-12-16T12:09:54.967Z,100773.88
2018-12-16T12:10:58.923Z,100773.48
2018-12-16T12:12:03.048Z,100772.66
2018-12-16T12:13:07.272Z,100772.66